createdAt,value
2023-04-15T00:00:41.243Z,97360.69
2023-04-15T00:03:08.664Z,97354.94
2023-04-15T00:05:35.558Z,97348.66
2023-04-15T00:08:02.238Z,97343.03
2023-04-15T00:10:29.160Z,97348.94
2023-04-15T00:12:55.944Z,97351.56
2023-04-15T00:15:22.628Z,97347.59
2023-04-15T00:17:52.165Z,97345.78
2023-04-15T00:20:18.973Z,97342.88
2023-04-15T00:22:46.644Z,97345.19
2023-04-15T00:25:13.445Z,97342.38
2023-04-15T00:27:40.774Z,97341.41
2023-04-15T00:30:08.008Z,97342.03
2023-04-15T00:32:35.076Z,97344.97
2023-04-15T00:35:02.469Z,97346.28
2023-04-15T00:37:29.368Z,97348.06
2023-04-15T00:39:56.714Z,97337.19
2023-04-15T00:42:23.994Z,97331.00
2023-04-15T00:44:50.715Z,97340.19
2023-04-15T00:47:18.617Z,97336.41
2023-04-15T00:49:45.898Z,97339.53
2023-04-15T00:52:13.415Z,97334.72
2023-04-15T00:54:40.232Z,97346.22
2023-04-15T00:57:07.340Z,97342.94
2023-04-15T00:59:34.305Z,97341.28
2023-04-15T01:02:01.718Z,97337.97
2023-04-15T01:04:29.244Z,97341.09
2023-04-15T01:06:56.247Z,97345.84
2023-04-15T01:09:23.069Z,97346.34
2023-04-15T01:11:51.231Z,97337.78
2023-04-15T01:14:17.998Z,97337.44
2023-04-15T01:16:45.541Z,97340.53
2023-04-15T01:19:13.758Z,97344.16
2023-04-15T01:21:41.167Z,97346.78
2023-04-15T01:24:13.341Z,97353.44
2023-04-15T01:26:41.029Z,97348.13
2023-04-15T01:29:08.658Z,97348.91
2023-04-15T01:31:35.730Z,97342.66
2023-04-15T01:34:02.508Z,97345.59
2023-04-15T01:36:30.035Z,97344.94
2023-04-15T01:38:57.444Z,97343.47
2023-04-15T01:41:28.228Z,97352.75
2023-04-15T01:43:55.312Z,97345.69
2023-04-15T01:46:22.213Z,97346.00
2023-04-15T01:48:48.967Z,97344.38
2023-04-15T01:51:15.697Z,97331.38
2023-04-15T01:53:42.740Z,97332.25
2023-04-15T01:56:09.513Z,97338.19
2023-04-15T01:58:36.292Z,97340.91
2023-04-15T02:01:04.125Z,97330.06
2023-04-15T02:03:32.030Z,97327.13
2023-04-15T02:05:58.831Z,97322.63
2023-04-15T02:08:25.658Z,97319.84
2023-04-15T02:10:52.944Z,97319.84
2023-04-15T02:13:20.121Z,97330.81
2023-04-15T02:15:50.879Z,97327.22
2023-04-15T02:18:19.509Z,97328.34
2023-04-15T02:20:47.216Z,97324.00
2023-04-15T02:23:14.118Z,97322.06
2023-04-15T02:25:53.486Z,97328.31
2023-04-15T02:28:21.373Z,97329.88
2023-04-15T02:30:53.581Z,97332.19
2023-04-15T02:33:21.542Z,97329.44
2023-04-15T02:35:48.310Z,97328.44
2023-04-15T02:38:16.999Z,97327.31
2023-04-15T02:40:43.924Z,97318.75
2023-04-15T02:43:10.838Z,97334.28
2023-04-15T02:45:37.608Z,97326.34
2023-04-15T02:48:06.713Z,97329.09
2023-04-15T02:50:33.703Z,97331.88
2023-04-15T02:53:01.883Z,97331.41
2023-04-15T02:55:29.568Z,97333.72
2023-04-15T02:57:57.397Z,97327.22
2023-04-15T03:00:25.542Z,97319.03
2023-04-15T03:02:56.868Z,97326.75
2023-04-15T03:05:26.594Z,97321.19
2023-04-15T03:07:53.733Z,97327.94
2023-04-15T03:10:21.992Z,97333.03
2023-04-15T03:12:49.041Z,97334.22
2023-04-15T03:15:18.608Z,97327.00
2023-04-15T03:17:49.852Z,97332.47
2023-04-15T03:20:17.165Z,97332.25
2023-04-15T03:22:44.108Z,97326.50
2023-04-15T03:25:11.145Z,97329.13
2023-04-15T03:27:38.798Z,97321.25
2023-04-15T03:30:06.888Z,97322.59
2023-04-15T03:32:36.625Z,97320.47
2023-04-15T03:35:03.378Z,97324.59
2023-04-15T03:37:30.071Z,97320.47
2023-04-15T03:39:56.831Z,97322.06
2023-04-15T03:42:23.584Z,97316.91
2023-04-15T03:44:50.253Z,97318.34
2023-04-15T03:47:16.922Z,97323.13
2023-04-15T03:49:43.638Z,97320.19
2023-04-15T03:52:10.329Z,97321.56
2023-04-15T03:54:37.024Z,97317.94
2023-04-15T03:57:03.757Z,97311.88
2023-04-15T03:59:30.683Z,97325.13
2023-04-15T04:01:57.596Z,97314.63
2023-04-15T04:04:24.523Z,97319.88
2023-04-15T04:06:51.275Z,97325.13
2023-04-15T04:09:17.999Z,97320.06
2023-04-15T04:11:45.792Z,97329.06
2023-04-15T04:14:12.542Z,97330.03
2023-04-15T04:16:39.390Z,97338.38
2023-04-15T04:19:06.499Z,97335.22
2023-04-15T04:21:34.373Z,97338.34
2023-04-15T04:24:01.226Z,97344.03
2023-04-15T04:26:28.004Z,97343.34
2023-04-15T04:28:54.722Z,97340.22
2023-04-15T04:31:21.453Z,97340.34
2023-04-15T04:33:48.154Z,97342.03
2023-04-15T04:36:14.868Z,97339.13
2023-04-15T04:38:41.723Z,97346.25
2023-04-15T04:41:08.418Z,97348.81
2023-04-15T04:43:35.140Z,97352.44
2023-04-15T04:46:02.017Z,97348.31
2023-04-15T04:48:28.716Z,97351.75
2023-04-15T04:50:55.887Z,97358.25
2023-04-15T04:53:22.594Z,97351.69
2023-04-15T04:55:49.261Z,97353.75
2023-04-15T04:58:15.984Z,97355.13
2023-04-15T05:00:43.543Z,97350.84
2023-04-15T05:03:10.561Z,97353.63
2023-04-15T05:05:39.635Z,97354.34
2023-04-15T05:08:06.621Z,97348.28
2023-04-15T05:10:33.316Z,97348.81
2023-04-15T05:13:00.041Z,97345.88
2023-04-15T05:15:26.777Z,97349.88
2023-04-15T05:17:53.545Z,97351.13
2023-04-15T05:20:20.313Z,97350.19
2023-04-15T05:22:47.063Z,97348.88
2023-04-15T05:25:14.121Z,97347.75
2023-04-15T05:27:41.087Z,97357.44
2023-04-15T05:30:09.056Z,97353.00
2023-04-15T05:32:35.880Z,97360.38
2023-04-15T05:35:02.600Z,97359.38
2023-04-15T05:37:29.428Z,97366.28
2023-04-15T05:39:56.975Z,97360.75
2023-04-15T05:42:23.679Z,97362.75
2023-04-15T05:44:50.553Z,97363.44
2023-04-15T05:47:17.440Z,97365.25
2023-04-15T05:49:44.256Z,97368.38
2023-04-15T05:52:11.132Z,97367.78
2023-04-15T05:54:38.505Z,97374.09
2023-04-15T05:57:05.650Z,97380.94
2023-04-15T05:59:33.061Z,97365.09
2023-04-15T06:01:59.783Z,97372.91
2023-04-15T06:04:26.699Z,97370.00
2023-04-15T06:06:53.672Z,97379.59
2023-04-15T06:09:20.439Z,97365.41
2023-04-15T06:11:47.558Z,97369.72
2023-04-15T06:14:14.263Z,97372.06
2023-04-15T06:16:41.169Z,97374.91
2023-04-15T06:19:08.062Z,97380.88
2023-04-15T06:21:34.836Z,97376.34
2023-04-15T06:24:01.740Z,97381.09
2023-04-15T06:26:28.911Z,97383.13
2023-04-15T06:28:55.953Z,97388.41
2023-04-15T06:31:23.073Z,97391.06
2023-04-15T06:33:49.868Z,97388.78
2023-04-15T06:36:16.594Z,97383.00
2023-04-15T06:38:43.280Z,97387.44
2023-04-15T06:41:09.973Z,97395.84
2023-04-15T06:43:37.244Z,97398.97
2023-04-15T06:46:04.608Z,97395.66
2023-04-15T06:48:31.611Z,97395.19
2023-04-15T06:50:59.029Z,97401.75
2023-04-15T06:53:28.150Z,97394.53
2023-04-15T06:55:54.990Z,97390.31
2023-04-15T06:58:22.119Z,97395.59
2023-04-15T07:00:49.369Z,97392.63
2023-04-15T07:03:16.344Z,97395.78
2023-04-15T07:05:43.606Z,97397.09
2023-04-15T07:08:10.338Z,97387.38
2023-04-15T07:10:37.414Z,97391.16
2023-04-15T07:13:04.543Z,97384.13
2023-04-15T07:15:31.481Z,97393.66
2023-04-15T07:17:58.336Z,97390.88
2023-04-15T07:20:25.195Z,97387.94
2023-04-15T07:22:51.953Z,97385.97
2023-04-15T07:25:19.190Z,97384.47
2023-04-15T07:27:46.059Z,97386.31
2023-04-15T07:30:21.922Z,97388.59
2023-04-15T07:32:49.171Z,97383.75
2023-04-15T07:35:15.947Z,97394.38
2023-04-15T07:37:43.632Z,97386.25
2023-04-15T07:40:10.889Z,97388.53
2023-04-15T07:42:39.382Z,97394.78
2023-04-15T07:45:08.004Z,97386.66
2023-04-15T07:47:34.805Z,97387.41
2023-04-15T07:50:02.443Z,97386.75
2023-04-15T07:52:29.245Z,97384.72
2023-04-15T07:54:55.993Z,97386.19
2023-04-15T07:57:22.803Z,97379.53
2023-04-15T07:59:50.266Z,97385.50
2023-04-15T08:02:17.186Z,97383.38
2023-04-15T08:04:44.309Z,97365.78
2023-04-15T08:07:11.264Z,97374.56
2023-04-15T08:09:38.024Z,97372.50
2023-04-15T08:12:05.011Z,97372.41
2023-04-15T08:14:32.036Z,97371.69
2023-04-15T08:16:58.775Z,97373.88
2023-04-15T08:19:26.009Z,97364.97
2023-04-15T08:21:52.767Z,97367.19
2023-04-15T08:24:20.071Z,97366.38
2023-04-15T08:26:47.373Z,97369.19
2023-04-15T08:29:14.193Z,97371.09
2023-04-15T08:31:41.238Z,97368.16
2023-04-15T08:34:08.043Z,97371.06
2023-04-15T08:36:35.048Z,97370.84
2023-04-15T08:39:02.387Z,97371.09
2023-04-15T08:41:36.003Z,97371.19
2023-04-15T08:44:05.177Z,97373.84
2023-04-15T08:46:35.024Z,97375.75
2023-04-15T08:49:05.332Z,97372.47
2023-04-15T08:51:32.418Z,97373.22
2023-04-15T08:53:59.977Z,97378.66
2023-04-15T08:56:29.634Z,97378.25
2023-04-15T08:58:56.942Z,97381.94
2023-04-15T09:01:23.760Z,97371.25
2023-04-15T09:03:51.017Z,97372.97
2023-04-15T09:06:18.313Z,97371.38
2023-04-15T09:08:45.173Z,97374.41
2023-04-15T09:11:12.450Z,97380.28
2023-04-15T09:13:39.558Z,97371.47
2023-04-15T09:16:06.959Z,97375.25
2023-04-15T09:18:35.763Z,97381.94
2023-04-15T09:21:11.523Z,97376.97
2023-04-15T09:23:52.065Z,97376.81
2023-04-15T09:26:18.986Z,97387.66
2023-04-15T09:28:45.822Z,97392.41
2023-04-15T09:31:12.974Z,97393.22
2023-04-15T09:33:56.567Z,97389.88
2023-04-15T09:36:25.256Z,97396.44
2023-04-15T09:38:59.554Z,97394.09
2023-04-15T09:41:28.790Z,97390.38
2023-04-15T09:43:55.640Z,97396.72
2023-04-15T09:46:41.369Z,97397.81
2023-04-15T09:49:09.339Z,97397.38
2023-04-15T09:51:36.696Z,97402.53
2023-04-15T09:54:03.741Z,97397.50
2023-04-15T09:56:38.986Z,97404.03
2023-04-15T09:59:06.185Z,97406.13
2023-04-15T10:01:36.285Z,97396.50
2023-04-15T10:04:07.093Z,97399.56
2023-04-15T10:06:34.097Z,97396.91
2023-04-15T10:09:01.376Z,97398.22
2023-04-15T10:11:32.058Z,97397.50
2023-04-15T10:13:58.904Z,97394.31
2023-04-15T10:16:28.651Z,97393.28
2023-04-15T10:18:56.779Z,97394.50
2023-04-15T10:21:23.863Z,97396.13
2023-04-15T10:23:51.555Z,97386.53
2023-04-15T10:26:18.383Z,97396.75
2023-04-15T10:28:47.372Z,97401.06
2023-04-15T10:31:15.267Z,97400.41
2023-04-15T10:33:43.165Z,97396.53
2023-04-15T10:36:10.596Z,97400.03
2023-04-15T10:38:42.662Z,97407.41
2023-04-15T10:41:17.797Z,97396.97
2023-04-15T10:43:53.018Z,97409.22
2023-04-15T10:46:22.253Z,97410.47
2023-04-15T10:48:53.181Z,97411.88
2023-04-15T10:51:30.822Z,97407.97
2023-04-15T10:54:01.623Z,97416.53
2023-04-15T10:56:31.962Z,97417.78
2023-04-15T10:59:02.049Z,97412.34
2023-04-15T11:01:53.354Z,97408.41
2023-04-15T11:04:58.815Z,97406.97
2023-04-15T11:07:44.458Z,97416.38
2023-04-15T11:10:13.856Z,97411.13
2023-04-15T11:12:42.172Z,97414.25
2023-04-15T11:15:42.452Z,97407.94
2023-04-15T11:18:10.263Z,97406.84
2023-04-15T11:20:38.028Z,97407.00
2023-04-15T11:23:13.874Z,97406.75
2023-04-15T11:25:43.556Z,97413.88
2023-04-15T11:28:11.657Z,97405.53
2023-04-15T11:30:39.524Z,97414.72
2023-04-15T11:33:08.829Z,97409.34
2023-04-15T11:35:36.624Z,97410.25
2023-04-15T11:38:04.855Z,97413.59
2023-04-15T11:40:33.622Z,97417.31
2023-04-15T11:43:06.903Z,97415.72
2023-04-15T11:45:33.922Z,97422.78
2023-04-15T11:48:07.245Z,97422.38
2023-04-15T11:50:35.402Z,97419.19
2023-04-15T11:53:08.398Z,97416.91
2023-04-15T11:55:50.932Z,97429.16
2023-04-15T11:58:22.811Z,97431.28
2023-04-15T12:01:00.354Z,97454.09
2023-04-15T12:03:31.261Z,97475.59
2023-04-15T12:06:05.504Z,97472.44
2023-04-15T12:08:51.009Z,97459.75
2023-04-15T12:11:17.887Z,97463.25
2023-04-15T12:13:47.072Z,97468.75
2023-04-15T12:16:13.951Z,97469.59
2023-04-15T12:18:40.674Z,97470.41
2023-04-15T12:21:11.127Z,97483.53
2023-04-15T12:23:39.297Z,97489.41
2023-04-15T12:26:07.672Z,97502.22
2023-04-15T12:28:36.849Z,97509.25
2023-04-15T12:31:10.783Z,97516.03
2023-04-15T12:33:38.031Z,97527.47
2023-04-15T12:36:08.474Z,97529.63
2023-04-15T12:38:35.244Z,97534.38
2023-04-15T12:41:02.003Z,97546.34
2023-04-15T12:43:29.041Z,97554.88
2023-04-15T12:45:55.906Z,97558.59
2023-04-15T12:48:22.641Z,97557.09
2023-04-15T12:50:49.425Z,97550.31
2023-04-15T12:53:16.197Z,97560.94
2023-04-15T12:55:42.935Z,97553.19
2023-04-15T12:58:11.556Z,97560.22
2023-04-15T13:00:38.956Z,97554.75
2023-04-15T13:03:07.400Z,97547.81
2023-04-15T13:05:34.298Z,97560.88
2023-04-15T13:08:01.082Z,97555.13
2023-04-15T13:10:31.811Z,97566.41
2023-04-15T13:12:58.823Z,97564.25
2023-04-15T13:15:26.104Z,97559.16
2023-04-15T13:17:52.931Z,97562.31
2023-04-15T13:20:20.122Z,97573.06
2023-04-15T13:22:47.038Z,97571.03
2023-04-15T13:25:14.099Z,97568.69
2023-04-15T13:27:40.785Z,97569.06
2023-04-15T13:30:08.648Z,97571.09
2023-04-15T13:32:35.844Z,97566.59
2023-04-15T13:35:02.640Z,97579.13
2023-04-15T13:37:30.366Z,97587.22
2023-04-15T13:39:57.396Z,97587.28
2023-04-15T13:42:24.836Z,97591.84
2023-04-15T13:44:51.847Z,97587.59
2023-04-15T13:47:21.616Z,97583.31
2023-04-15T13:49:48.392Z,97593.69
2023-04-15T13:52:15.061Z,97592.84
2023-04-15T13:54:41.821Z,97596.06
2023-04-15T13:57:08.581Z,97590.78
2023-04-15T13:59:35.656Z,97597.41
2023-04-15T14:02:02.960Z,97588.59
2023-04-15T14:04:31.631Z,97585.25
2023-04-15T14:06:58.812Z,97588.97
2023-04-15T14:09:26.478Z,97598.66
2023-04-15T14:11:54.625Z,97609.47
2023-04-15T14:14:21.406Z,97610.03
2023-04-15T14:16:48.468Z,97616.53
2023-04-15T14:19:15.402Z,97617.38
2023-04-15T14:21:42.246Z,97618.66
2023-04-15T14:24:08.978Z,97619.09
2023-04-15T14:26:35.762Z,97616.41
2023-04-15T14:29:02.731Z,97613.38
2023-04-15T14:31:29.594Z,97625.09
2023-04-15T14:33:56.279Z,97631.41
2023-04-15T14:36:23.163Z,97635.25
2023-04-15T14:38:50.155Z,97644.84
2023-04-15T14:41:17.390Z,97645.69
2023-04-15T14:43:44.115Z,97639.59
2023-04-15T14:46:11.468Z,97658.59
2023-04-15T14:48:38.394Z,97659.84
2023-04-15T14:51:05.253Z,97663.34
2023-04-15T14:53:32.126Z,97657.41
2023-04-15T14:55:58.834Z,97656.59
2023-04-15T14:58:25.593Z,97664.72
2023-04-15T15:00:52.344Z,97667.75
2023-04-15T15:03:19.235Z,97669.03
2023-04-15T15:05:46.963Z,97676.97
2023-04-15T15:08:14.006Z,97687.16
2023-04-15T15:10:49.562Z,97690.03
2023-04-15T15:13:17.174Z,97701.56
2023-04-15T15:15:44.231Z,97704.41
2023-04-15T15:18:11.527Z,97705.22
2023-04-15T15:20:38.400Z,97705.25
2023-04-15T15:23:05.129Z,97711.44
2023-04-15T15:25:32.173Z,97719.59
2023-04-15T15:27:58.910Z,97724.78
2023-04-15T15:30:25.661Z,97715.53
2023-04-15T15:32:52.409Z,97724.19
2023-04-15T15:35:19.169Z,97724.63
2023-04-15T15:37:46.214Z,97717.94
2023-04-15T15:40:13.128Z,97725.63
2023-04-15T15:42:39.826Z,97732.03
2023-04-15T15:45:07.246Z,97730.78
2023-04-15T15:47:34.055Z,97732.56
2023-04-15T15:50:03.041Z,97736.38
2023-04-15T15:52:30.975Z,97747.06
2023-04-15T15:54:57.681Z,97747.09
2023-04-15T15:57:24.373Z,97747.91
2023-04-15T16:00:04.882Z,97755.88
2023-04-15T16:03:04.359Z,97772.44
2023-04-15T16:05:24.161Z,97781.19
2023-04-15T16:07:51.164Z,97793.09
2023-04-15T16:10:18.220Z,97795.91
2023-04-15T16:12:44.946Z,97799.41
2023-04-15T16:15:12.761Z,97793.94
2023-04-15T16:17:39.722Z,97799.72
2023-04-15T16:20:07.229Z,97798.38
2023-04-15T16:22:35.050Z,97803.34
2023-04-15T16:25:02.410Z,97799.88
2023-04-15T16:27:29.430Z,97804.84
2023-04-15T16:29:56.770Z,97808.63
2023-04-15T16:32:23.589Z,97811.94
2023-04-15T16:34:50.497Z,97816.06
2023-04-15T16:37:17.171Z,97827.97
2023-04-15T16:39:43.872Z,97824.34
2023-04-15T16:42:10.736Z,97828.97
2023-04-15T16:44:37.582Z,97826.66
2023-04-15T16:47:04.264Z,97833.91
2023-04-15T16:49:31.004Z,97832.41
2023-04-15T16:51:57.779Z,97840.84
2023-04-15T16:54:24.470Z,97841.34
2023-04-15T16:56:51.575Z,97841.50
2023-04-15T16:59:18.323Z,97847.94
2023-04-15T17:01:45.664Z,97850.75
2023-04-15T17:04:12.681Z,97855.22
2023-04-15T17:06:39.944Z,97861.50
2023-04-15T17:09:06.901Z,97867.28
2023-04-15T17:11:35.298Z,97869.75
2023-04-15T17:14:03.016Z,97875.03
2023-04-15T17:16:29.705Z,97874.84
2023-04-15T17:18:56.609Z,97876.50
2023-04-15T17:21:23.298Z,97887.91
2023-04-15T17:23:52.183Z,97889.19
2023-04-15T17:26:19.264Z,97888.72
2023-04-15T17:28:46.211Z,97897.13
2023-04-15T17:31:13.011Z,97904.56
2023-04-15T17:34:01.269Z,97903.69
2023-04-15T17:36:27.193Z,97901.59
2023-04-15T17:38:56.348Z,97910.34
2023-04-15T17:41:23.358Z,97907.84
2023-04-15T17:43:50.520Z,97916.25
2023-04-15T17:46:17.334Z,97922.03
2023-04-15T17:48:44.080Z,97921.38
2023-04-15T17:51:10.937Z,97928.69
2023-04-15T17:53:37.610Z,97930.28
2023-04-15T17:56:04.477Z,97938.03
2023-04-15T17:58:31.519Z,97933.88
2023-04-15T18:00:58.380Z,97941.19
2023-04-15T18:03:25.240Z,97942.88
2023-04-15T18:05:52.111Z,97944.41
2023-04-15T18:08:18.873Z,97941.28
2023-04-15T18:10:45.621Z,97943.94
2023-04-15T18:13:12.309Z,97953.50
2023-04-15T18:15:39.014Z,97950.38
2023-04-15T18:18:05.769Z,97960.63
2023-04-15T18:20:33.651Z,97964.25
2023-04-15T18:23:00.416Z,97969.53
2023-04-15T18:25:27.151Z,97961.41
2023-04-15T18:27:55.016Z,97973.47
2023-04-15T18:30:21.779Z,97968.19
2023-04-15T18:32:48.633Z,97979.91
2023-04-15T18:35:17.270Z,97979.41
2023-04-15T18:37:44.114Z,97985.03
2023-04-15T18:40:11.267Z,97989.31
2023-04-15T18:42:38.004Z,97989.63
2023-04-15T18:45:05.667Z,97997.22
2023-04-15T18:47:32.639Z,98000.19
2023-04-15T18:49:59.803Z,98010.44
2023-04-15T18:52:26.757Z,98003.19
2023-04-15T18:54:53.417Z,98010.25
2023-04-15T18:57:23.613Z,98009.56
2023-04-15T18:59:58.095Z,98012.16
2023-04-15T19:02:25.018Z,98019.97
2023-04-15T19:04:51.906Z,98018.53
2023-04-15T19:07:18.867Z,98022.34
2023-04-15T19:09:45.668Z,98027.88
2023-04-15T19:12:12.380Z,98032.16
2023-04-15T19:14:39.202Z,98029.50
2023-04-15T19:17:05.968Z,98028.09
2023-04-15T19:19:32.641Z,98029.19
2023-04-15T19:22:01.859Z,98030.75
2023-04-15T19:24:30.542Z,98041.56
2023-04-15T19:26:59.423Z,98042.63
2023-04-15T19:29:26.188Z,98043.31
2023-04-15T19:31:53.071Z,98051.72
2023-04-15T19:34:19.783Z,98046.91
2023-04-15T19:36:46.601Z,98041.81
2023-04-15T19:39:13.737Z,98046.06
2023-04-15T19:41:40.485Z,98051.91
2023-04-15T19:44:07.261Z,98054.59
2023-04-15T19:46:34.222Z,98054.78
2023-04-15T19:49:01.790Z,98059.50
2023-04-15T19:51:28.922Z,98060.47
2023-04-15T19:53:57.015Z,98057.66
2023-04-15T19:56:24.275Z,98060.00
2023-04-15T19:58:53.296Z,98062.94
2023-04-15T20:01:20.508Z,98064.34
2023-04-15T20:03:47.605Z,98057.91
2023-04-15T20:06:15.668Z,98062.56
2023-04-15T20:08:42.456Z,98060.59
2023-04-15T20:11:09.932Z,98061.91
2023-04-15T20:13:36.784Z,98053.69
2023-04-15T20:16:03.679Z,98057.97
2023-04-15T20:18:30.965Z,98057.47
2023-04-15T20:20:57.735Z,98051.19
2023-04-15T20:23:24.528Z,98053.34
2023-04-15T20:25:52.052Z,98053.41
2023-04-15T20:28:19.472Z,98064.78
2023-04-15T20:30:47.284Z,98060.19
2023-04-15T20:33:14.441Z,98063.00
2023-04-15T20:35:41.256Z,98058.53
2023-04-15T20:38:07.948Z,98063.34
2023-04-15T20:40:34.739Z,98054.75
2023-04-15T20:43:01.672Z,98062.13
2023-04-15T20:45:28.382Z,98062.31
2023-04-15T20:47:56.303Z,98068.47
2023-04-15T20:50:23.090Z,98068.38
2023-04-15T20:52:49.806Z,98064.06
2023-04-15T20:55:17.339Z,98073.75
2023-04-15T20:57:44.045Z,98075.19
2023-04-15T21:00:11.303Z,98074.75
2023-04-15T21:02:38.907Z,98078.88
2023-04-15T21:05:06.128Z,98077.19
2023-04-15T21:07:32.954Z,98078.81
2023-04-15T21:09:59.637Z,98079.06
2023-04-15T21:12:26.341Z,98079.97
2023-04-15T21:14:53.327Z,98083.94
2023-04-15T21:17:20.109Z,98093.69
2023-04-15T21:19:46.790Z,98095.88
2023-04-15T21:22:13.544Z,98098.97
2023-04-15T21:24:40.289Z,98093.91
2023-04-15T21:27:07.000Z,98097.03
2023-04-15T21:29:33.776Z,98106.00
2023-04-15T21:32:00.709Z,98101.25
2023-04-15T21:34:27.494Z,98109.16
2023-04-15T21:36:54.336Z,98114.31
2023-04-15T21:39:21.031Z,98110.59
2023-04-15T21:41:47.767Z,98113.94
2023-04-15T21:44:15.087Z,98119.34
2023-04-15T21:46:42.192Z,98117.59
2023-04-15T21:49:12.864Z,98118.44
2023-04-15T21:51:39.554Z,98124.00
2023-04-15T21:54:06.239Z,98119.97
2023-04-15T21:56:33.371Z,98123.19
2023-04-15T21:59:00.070Z,98122.38
2023-04-15T22:01:27.384Z,98129.91
2023-04-15T22:03:54.387Z,98133.22
2023-04-15T22:06:21.592Z,98133.06
2023-04-15T22:09:09.246Z,98135.25
2023-04-15T22:11:36.549Z,98142.78
2023-04-15T22:14:03.282Z,98144.19
2023-04-15T22:16:30.044Z,98144.63
2023-04-15T22:18:56.820Z,98149.53
2023-04-15T22:21:24.009Z,98147.94
2023-04-15T22:23:51.425Z,98147.75
2023-04-15T22:26:18.164Z,98155.66
2023-04-15T22:28:45.264Z,98152.09
2023-04-15T22:31:12.043Z,98156.47
2023-04-15T22:33:39.145Z,98160.53
2023-04-15T22:36:06.476Z,98160.53
2023-04-15T22:38:33.369Z,98163.47
2023-04-15T22:41:00.501Z,98166.28
2023-04-15T22:43:27.874Z,98168.69
2023-04-15T22:45:55.209Z,98175.84
2023-04-15T22:48:22.467Z,98172.22
2023-04-15T22:50:49.728Z,98174.78
2023-04-15T22:53:17.581Z,98177.50
2023-04-15T22:55:48.591Z,98178.19
2023-04-15T22:58:16.433Z,98173.28
2023-04-15T23:00:43.257Z,98181.19
2023-04-15T23:03:10.506Z,98177.81
2023-04-15T23:05:37.572Z,98181.44
2023-04-15T23:08:04.258Z,98180.97
2023-04-15T23:10:31.130Z,98184.06
2023-04-15T23:12:57.898Z,98179.47
2023-04-15T23:15:25.017Z,98185.56
2023-04-15T23:17:51.831Z,98184.13
2023-04-15T23:20:18.595Z,98188.34
2023-04-15T23:22:45.586Z,98186.72
2023-04-15T23:25:12.497Z,98190.75
2023-04-15T23:27:39.283Z,98194.00
2023-04-15T23:30:07.331Z,98199.66
2023-04-15T23:32:34.085Z,98196.34
2023-04-15T23:35:00.866Z,98199.16
2023-04-15T23:37:27.858Z,98195.75
2023-04-15T23:39:55.895Z,98195.28
2023-04-15T23:42:23.385Z,98209.91
2023-04-15T23:44:50.158Z,98197.31
2023-04-15T23:47:16.848Z,98206.00
2023-04-15T23:49:43.989Z,98209.56
2023-04-15T23:52:10.747Z,98209.66
2023-04-15T23:54:37.433Z,98209.38
2023-04-15T23:57:04.217Z,98212.94
2023-04-15T23:59:30.972Z,98213.97
